createdAt,value
2019-01-09T00:01:31.628Z,5.70
2019-01-09T00:04:01.746Z,5.80
2019-01-09T00:06:32.361Z,5.80
2019-01-09T00:09:04.612Z,6.00
2019-01-09T00:11:34.910Z,5.80
2019-01-09T00:14:05.699Z,6.20
2019-01-09T00:16:35.962Z,5.80
2019-01-09T00:19:08.984Z,6.20
2019-01-09T00:21:39.174Z,5.80
2019-01-09T00:24:09.388Z,5.70
2019-01-09T00:26:39.591Z,5.80
2019-01-09T00:29:09.788Z,5.70
2019-01-09T00:31:39.983Z,6.10
2019-01-09T00:34:10.546Z,5.70
2019-01-09T00:36:40.956Z,5.70
2019-01-09T00:39:11.157Z,5.80
2019-01-09T00:41:41.742Z,5.70
2019-01-09T00:44:12.241Z,5.90
2019-01-09T00:46:42.459Z,5.70
2019-01-09T00:49:14.430Z,5.70
2019-01-09T00:51:44.675Z,5.70
2019-01-09T00:54:14.827Z,5.80
2019-01-09T00:56:45.589Z,5.90
2019-01-09T00:59:15.892Z,5.80
2019-01-09T01:01:55.689Z,5.70
2019-01-09T01:04:51.711Z,5.90
2019-01-09T01:08:01.323Z,6.00
2019-01-09T01:11:15.493Z,6.00
2019-01-09T01:14:10.585Z,6.20
2019-01-09T01:17:24.339Z,6.00
2019-01-09T01:20:23.315Z,5.90
2019-01-09T01:23:53.139Z,5.60
2019-01-09T01:26:38.817Z,5.40
2019-01-09T01:30:07.390Z,5.30
2019-01-09T01:33:09.454Z,5.00
2019-01-09T01:36:26.956Z,5.20
2019-01-09T01:39:27.497Z,4.90
2019-01-09T01:42:25.778Z,4.70
2019-01-09T01:45:28.806Z,4.80
2019-01-09T01:48:13.487Z,4.90
2019-01-09T01:51:19.757Z,5.20
2019-01-09T01:54:12.357Z,5.10
2019-01-09T01:56:55.245Z,5.50
2019-01-09T01:59:47.196Z,5.60
2019-01-09T02:02:35.457Z,5.50
2019-01-09T02:05:34.845Z,5.60
2019-01-09T02:08:42.782Z,5.20
2019-01-09T02:11:23.278Z,5.30
2019-01-09T02:14:19.203Z,5.10
2019-01-09T02:17:18.112Z,5.10
2019-01-09T02:20:36.253Z,5.10
2019-01-09T02:23:42.332Z,5.10
2019-01-09T02:26:37.330Z,5.50
2019-01-09T02:29:32.702Z,5.40
2019-01-09T02:32:31.158Z,5.40
2019-01-09T02:35:01.479Z,5.30
2019-01-09T02:37:32.038Z,5.20
2019-01-09T02:40:02.214Z,5.60
2019-01-09T02:42:32.495Z,5.70
2019-01-09T02:45:02.981Z,5.30
2019-01-09T02:47:33.183Z,5.40
2019-01-09T02:50:03.521Z,5.50
2019-01-09T02:52:34.636Z,5.20
2019-01-09T02:55:05.053Z,5.00
2019-01-09T02:57:35.641Z,5.10
2019-01-09T03:00:10.744Z,5.10
2019-01-09T03:02:41.151Z,4.80
2019-01-09T03:05:11.786Z,4.60
2019-01-09T03:07:41.963Z,4.70
2019-01-09T03:10:12.225Z,4.40
2019-01-09T03:12:42.417Z,4.40
2019-01-09T03:15:13.096Z,4.60
2019-01-09T03:17:43.395Z,4.40
2019-01-09T03:20:14.523Z,5.00
2019-01-09T03:22:45.101Z,4.90
2019-01-09T03:25:15.287Z,4.80
2019-01-09T03:27:45.778Z,5.00
2019-01-09T03:30:16.260Z,5.00
2019-01-09T03:32:46.452Z,4.90
2019-01-09T03:35:17.064Z,4.60
2019-01-09T03:37:47.219Z,4.80
2019-01-09T03:40:17.395Z,4.50
2019-01-09T03:42:47.535Z,4.50
2019-01-09T03:45:17.845Z,4.80
2019-01-09T03:47:48.142Z,4.80
2019-01-09T03:50:18.241Z,4.80
2019-01-09T03:52:48.468Z,4.70
2019-01-09T03:55:18.591Z,4.60
2019-01-09T03:57:49.170Z,4.80
2019-01-09T04:00:19.380Z,4.40
2019-01-09T04:02:49.826Z,4.20
2019-01-09T04:05:20.019Z,4.40
2019-01-09T04:07:50.378Z,4.40
2019-01-09T04:10:20.651Z,4.60
2019-01-09T04:12:50.876Z,4.70
2019-01-09T04:15:21.212Z,4.90
2019-01-09T04:17:51.436Z,5.00
2019-01-09T04:20:21.893Z,5.20
2019-01-09T04:22:52.106Z,5.20
2019-01-09T04:25:22.206Z,4.80
2019-01-09T04:27:52.412Z,5.20
2019-01-09T04:30:22.980Z,5.00
2019-01-09T04:32:53.334Z,5.10
2019-01-09T04:35:23.805Z,5.00
2019-01-09T04:37:54.038Z,5.10
2019-01-09T04:40:24.507Z,5.30
2019-01-09T04:42:55.420Z,5.00
2019-01-09T04:45:25.666Z,5.20
2019-01-09T04:47:55.828Z,4.90
2019-01-09T04:50:26.039Z,5.00
2019-01-09T04:52:56.229Z,4.80
2019-01-09T04:55:26.835Z,4.80
2019-01-09T04:57:56.961Z,4.70
2019-01-09T05:00:27.216Z,4.60
2019-01-09T05:02:57.733Z,5.00
2019-01-09T05:05:28.269Z,5.00
2019-01-09T05:07:58.479Z,5.10
2019-01-09T05:10:28.802Z,4.90
2019-01-09T05:12:59.072Z,5.20
2019-01-09T05:15:29.335Z,5.10
2019-01-09T05:17:59.552Z,5.10
2019-01-09T05:20:30.180Z,4.80
2019-01-09T05:23:00.430Z,4.80
2019-01-09T05:25:30.650Z,4.90
2019-01-09T05:28:00.865Z,5.00
2019-01-09T05:30:31.367Z,5.00
2019-01-09T05:33:02.381Z,4.80
2019-01-09T05:35:32.611Z,4.50
2019-01-09T05:38:02.841Z,4.50
2019-01-09T05:40:33.035Z,4.60
2019-01-09T05:43:03.285Z,4.60
2019-01-09T05:45:33.500Z,5.00
2019-01-09T05:48:04.033Z,5.20
2019-01-09T05:50:34.575Z,4.90
2019-01-09T05:53:04.803Z,5.00
2019-01-09T05:55:34.971Z,5.20
2019-01-09T05:58:05.504Z,4.90
2019-01-09T06:00:35.729Z,4.90
2019-01-09T06:03:05.950Z,4.90
2019-01-09T06:05:36.136Z,4.80
2019-01-09T06:08:06.432Z,4.80
2019-01-09T06:10:36.698Z,4.70
2019-01-09T06:13:06.919Z,4.80
2019-01-09T06:15:37.138Z,4.70
2019-01-09T06:18:07.344Z,5.00
2019-01-09T06:20:38.061Z,5.30
2019-01-09T06:23:08.292Z,5.50
2019-01-09T06:25:38.412Z,5.40
2019-01-09T06:28:08.664Z,5.50
2019-01-09T06:30:39.298Z,5.10
2019-01-09T06:33:10.255Z,5.20
2019-01-09T06:35:40.538Z,4.80
2019-01-09T06:38:11.058Z,5.00
2019-01-09T06:40:41.958Z,4.90
2019-01-09T06:43:13.509Z,4.60
2019-01-09T06:45:43.886Z,4.60
2019-01-09T06:48:14.881Z,5.00
2019-01-09T06:50:45.239Z,4.70
2019-01-09T06:53:15.460Z,4.60
2019-01-09T06:55:45.751Z,4.80
2019-01-09T06:58:15.921Z,4.60
2019-01-09T07:00:46.172Z,4.70
2019-01-09T07:03:16.515Z,4.90
2019-01-09T07:05:46.664Z,4.80
2019-01-09T07:08:16.948Z,5.00
2019-01-09T07:10:47.251Z,5.00
2019-01-09T07:13:17.522Z,4.90
2019-01-09T07:15:48.203Z,4.90
2019-01-09T07:18:18.835Z,5.30
2019-01-09T07:20:49.333Z,5.10
2019-01-09T07:23:19.569Z,5.30
2019-01-09T07:25:49.810Z,5.20
2019-01-09T07:28:20.912Z,5.40
2019-01-09T07:30:51.204Z,5.00
2019-01-09T07:33:21.499Z,4.90
2019-01-09T07:35:52.142Z,4.90
2019-01-09T07:38:23.559Z,5.00
2019-01-09T07:40:54.169Z,5.20
2019-01-09T07:43:24.655Z,5.40
2019-01-09T07:45:55.430Z,5.20
2019-01-09T07:48:25.808Z,5.40
2019-01-09T07:50:56.227Z,5.20
2019-01-09T07:53:26.669Z,5.00
2019-01-09T07:55:57.075Z,5.00
2019-01-09T07:58:27.432Z,4.90
2019-01-09T08:00:57.967Z,4.90
2019-01-09T08:03:29.263Z,4.90
2019-01-09T08:06:02.329Z,5.10
2019-01-09T08:08:32.693Z,4.80
2019-01-09T08:11:03.610Z,4.70
2019-01-09T08:13:36.806Z,4.70
2019-01-09T08:16:10.014Z,4.90
2019-01-09T08:18:40.320Z,4.70
2019-01-09T08:21:13.668Z,4.60
2019-01-09T08:23:44.044Z,5.00
2019-01-09T08:26:15.534Z,4.90
2019-01-09T08:28:47.964Z,5.00
2019-01-09T08:31:18.916Z,5.20
2019-01-09T08:33:49.395Z,5.10
2019-01-09T08:36:20.437Z,5.30
2019-01-09T08:38:56.087Z,5.20
2019-01-09T08:41:23.361Z,5.40
2019-01-09T08:43:53.730Z,5.30
2019-01-09T08:46:24.485Z,5.50
2019-01-09T08:48:54.820Z,5.40
2019-01-09T08:51:26.001Z,5.20
2019-01-09T08:53:58.494Z,5.10
2019-01-09T08:56:28.921Z,5.20
2019-01-09T08:58:59.614Z,5.20
2019-01-09T09:01:30.069Z,5.40
2019-01-09T09:04:00.509Z,5.20
2019-01-09T09:06:31.514Z,5.70
2019-01-09T09:09:05.252Z,5.80
2019-01-09T09:11:36.687Z,6.50
2019-01-09T09:14:08.907Z,6.50
2019-01-09T09:16:39.254Z,6.40
2019-01-09T09:19:09.608Z,5.80
2019-01-09T09:21:39.800Z,5.70
2019-01-09T09:24:13.432Z,5.90
2019-01-09T09:26:43.763Z,5.80
2019-01-09T09:29:14.203Z,6.40
2019-01-09T09:31:44.595Z,6.20
2019-01-09T09:34:15.231Z,6.80
2019-01-09T09:36:45.767Z,6.60
2019-01-09T09:39:16.473Z,7.00
2019-01-09T09:41:47.218Z,7.00
2019-01-09T09:44:17.945Z,7.00
2019-01-09T09:46:48.649Z,6.80
2019-01-09T09:49:19.037Z,6.90
2019-01-09T09:51:49.502Z,7.10
2019-01-09T09:54:20.035Z,7.40
2019-01-09T09:56:50.429Z,6.90
2019-01-09T09:59:21.071Z,6.70
2019-01-09T10:01:53.386Z,6.50
2019-01-09T10:04:23.791Z,6.60
2019-01-09T10:06:54.414Z,6.60
2019-01-09T10:09:24.697Z,6.80
2019-01-09T10:11:55.021Z,7.10
2019-01-09T10:14:25.769Z,7.10
2019-01-09T10:17:06.140Z,7.30
2019-01-09T10:19:42.739Z,7.40
2019-01-09T10:22:13.993Z,6.90
2019-01-09T10:24:44.594Z,7.10
2019-01-09T10:27:17.696Z,7.10
2019-01-09T10:29:48.222Z,7.40
2019-01-09T10:32:18.727Z,7.60
2019-01-09T10:34:49.483Z,7.80
2019-01-09T10:37:20.138Z,8.00
2019-01-09T10:39:51.306Z,7.90
2019-01-09T10:42:22.308Z,7.90
2019-01-09T10:44:53.221Z,7.80
2019-01-09T10:47:23.588Z,7.70
2019-01-09T10:49:54.011Z,7.70
2019-01-09T10:52:24.440Z,7.90
2019-01-09T10:54:55.956Z,7.60
2019-01-09T10:57:57.550Z,7.40
2019-01-09T11:00:27.962Z,6.70
2019-01-09T11:02:58.532Z,6.60
2019-01-09T11:05:28.927Z,6.00
2019-01-09T11:08:01.182Z,5.80
2019-01-09T11:10:31.274Z,5.40
2019-01-09T11:13:01.974Z,5.50
2019-01-09T11:15:32.404Z,5.40
2019-01-09T11:18:02.797Z,5.50
2019-01-09T11:20:33.157Z,5.70
2019-01-09T11:23:03.819Z,5.80
2019-01-09T11:25:40.686Z,6.20
2019-01-09T11:28:13.096Z,6.10
2019-01-09T11:30:43.851Z,5.90
2019-01-09T11:33:14.489Z,6.00
2019-01-09T11:35:46.060Z,6.20
2019-01-09T11:38:17.105Z,6.20
2019-01-09T11:40:47.502Z,6.40
2019-01-09T11:43:18.243Z,6.60
2019-01-09T11:45:48.894Z,6.80
2019-01-09T11:48:19.309Z,7.30
2019-01-09T11:50:49.679Z,7.60
2019-01-09T11:53:20.071Z,8.00
2019-01-09T11:55:50.732Z,7.90
2019-01-09T11:58:21.785Z,8.10
2019-01-09T12:00:52.767Z,8.60
2019-01-09T12:03:23.944Z,8.60
2019-01-09T12:05:54.339Z,8.10
2019-01-09T12:08:25.821Z,8.20
2019-01-09T12:10:56.537Z,7.70
2019-01-09T12:13:27.063Z,7.50
2019-01-09T12:15:57.514Z,7.40
2019-01-09T12:18:30.867Z,7.30
2019-01-09T12:21:04.027Z,7.40
2019-01-09T12:23:34.400Z,7.10
2019-01-09T12:26:04.909Z,7.40
2019-01-09T12:28:37.376Z,7.10
2019-01-09T12:31:08.332Z,7.40
2019-01-09T12:33:40.914Z,7.40
2019-01-09T12:36:11.332Z,7.10
2019-01-09T12:38:41.791Z,7.40
2019-01-09T12:41:12.755Z,7.00
2019-01-09T12:43:43.373Z,7.10
2019-01-09T12:46:14.160Z,7.10
2019-01-09T12:48:45.698Z,7.40
2019-01-09T12:51:16.325Z,7.10
2019-01-09T12:53:46.813Z,7.10
2019-01-09T12:56:17.214Z,7.40
2019-01-09T12:58:47.640Z,6.90
2019-01-09T13:01:18.318Z,7.40
2019-01-09T13:03:48.689Z,7.20
2019-01-09T13:06:19.566Z,7.30
2019-01-09T13:08:49.951Z,7.20
2019-01-09T13:11:20.493Z,7.00
2019-01-09T13:13:51.269Z,7.00
2019-01-09T13:16:22.244Z,7.30
2019-01-09T13:18:52.641Z,7.30
2019-01-09T13:21:23.294Z,7.40
2019-01-09T13:23:57.314Z,7.10
2019-01-09T13:26:28.468Z,7.30
2019-01-09T13:28:59.323Z,6.90
2019-01-09T13:31:31.269Z,7.10
2019-01-09T13:34:01.986Z,6.60
2019-01-09T13:36:32.371Z,7.00
2019-01-09T13:39:02.718Z,7.30
2019-01-09T13:41:33.117Z,7.20
2019-01-09T13:44:03.509Z,7.30
2019-01-09T13:46:35.634Z,7.10
2019-01-09T13:49:08.597Z,7.40
2019-01-09T13:51:39.040Z,7.00
2019-01-09T13:57:27.620Z,7.30
2019-01-09T13:59:58.143Z,6.90
2019-01-09T14:02:28.579Z,6.80
2019-01-09T14:04:59.205Z,6.90
2019-01-09T14:07:29.551Z,6.80
2019-01-09T14:10:01.725Z,6.90
2019-01-09T14:12:32.113Z,7.30
2019-01-09T14:15:02.525Z,7.30
2019-01-09T14:17:33.162Z,6.90
2019-01-09T14:20:03.787Z,7.10
2019-01-09T14:22:34.199Z,7.10
2019-01-09T14:25:04.864Z,6.90
2019-01-09T14:27:36.727Z,7.10
2019-01-09T14:30:09.737Z,7.40
2019-01-09T14:32:40.161Z,7.20
2019-01-09T14:35:10.723Z,7.50
2019-01-09T14:37:41.324Z,7.30
2019-01-09T14:40:13.030Z,7.30
2019-01-09T14:42:43.746Z,6.80
2019-01-09T14:45:14.604Z,6.90
2019-01-09T14:47:45.090Z,7.10
2019-01-09T14:50:20.958Z,7.10
2019-01-09T14:52:51.300Z,7.10
2019-01-09T14:55:24.540Z,7.10
2019-01-09T14:57:54.877Z,7.30
2019-01-09T15:00:27.171Z,7.40
2019-01-09T15:02:57.468Z,7.30
2019-01-09T15:05:27.921Z,7.30
2019-01-09T15:07:58.539Z,7.00
2019-01-09T15:10:31.600Z,7.00
2019-01-09T15:13:02.504Z,7.00
2019-01-09T15:15:33.168Z,6.90
2019-01-09T15:18:03.524Z,7.10
2019-01-09T15:20:39.237Z,6.80
2019-01-09T15:23:10.082Z,6.90
2019-01-09T15:25:40.583Z,6.90
2019-01-09T15:28:11.058Z,6.60
2019-01-09T15:30:41.523Z,6.60
2019-01-09T15:33:11.994Z,6.60
2019-01-09T15:35:42.780Z,6.70
2019-01-09T15:38:13.602Z,6.80
2019-01-09T15:40:45.038Z,6.60
2019-01-09T15:43:15.846Z,6.80
2019-01-09T15:45:46.205Z,6.70
2019-01-09T15:48:16.539Z,6.40
2019-01-09T15:50:47.285Z,6.30
2019-01-09T15:53:17.654Z,6.30
2019-01-09T15:55:48.149Z,6.60
2019-01-09T15:58:18.527Z,6.40
2019-01-09T16:00:51.889Z,6.30
2019-01-09T16:03:22.585Z,6.70
2019-01-09T16:05:53.132Z,6.50
2019-01-09T16:08:23.577Z,6.40
2019-01-09T16:10:54.217Z,6.40
2019-01-09T16:13:24.700Z,6.40
2019-01-09T16:15:57.385Z,6.30
2019-01-09T16:18:28.218Z,6.30
2019-01-09T16:20:58.879Z,6.20
2019-01-09T16:23:29.127Z,6.30
2019-01-09T16:25:59.364Z,6.20
2019-01-09T16:28:29.610Z,6.00
2019-01-09T16:31:13.313Z,6.10
2019-01-09T16:33:43.911Z,6.30
2019-01-09T16:36:14.558Z,6.80
2019-01-09T16:38:44.794Z,6.60
2019-01-09T16:41:14.977Z,6.70
2019-01-09T16:43:45.201Z,6.50
2019-01-09T16:46:15.940Z,6.30
2019-01-09T16:48:46.514Z,6.20
2019-01-09T16:51:16.708Z,6.10
2019-01-09T16:53:46.954Z,6.00
2019-01-09T16:56:17.553Z,6.10
2019-01-09T16:58:48.232Z,6.00
2019-01-09T17:01:18.912Z,6.00
2019-01-09T17:03:49.165Z,6.30
2019-01-09T17:06:19.426Z,6.20
2019-01-09T17:08:49.640Z,6.30
2019-01-09T17:11:19.870Z,6.00
2019-01-09T17:13:50.116Z,6.10
2019-01-09T17:16:20.398Z,5.80
2019-01-09T17:18:50.620Z,5.80
2019-01-09T17:21:20.843Z,5.70
2019-01-09T17:23:51.456Z,5.60
2019-01-09T17:26:21.684Z,5.50
2019-01-09T17:28:52.192Z,5.70
2019-01-09T17:31:22.478Z,5.60
2019-01-09T17:33:53.143Z,5.50
2019-01-09T17:36:23.698Z,5.60
2019-01-09T17:38:53.985Z,5.60
2019-01-09T17:41:24.288Z,5.70
2019-01-09T17:43:54.939Z,5.80
2019-01-09T17:46:25.289Z,6.20
2019-01-09T17:48:55.477Z,6.20
2019-01-09T17:51:25.703Z,6.20
2019-01-09T17:53:55.905Z,6.10
2019-01-09T17:56:26.167Z,5.70
2019-01-09T17:58:56.791Z,5.50
2019-01-09T18:01:27.046Z,5.60
2019-01-09T18:03:57.569Z,5.50
2019-01-09T18:06:27.808Z,5.70
2019-01-09T18:08:58.080Z,5.50
2019-01-09T18:11:28.285Z,5.60
2019-01-09T18:13:58.934Z,5.50
2019-01-09T18:16:29.131Z,5.50
2019-01-09T18:18:59.747Z,5.40
2019-01-09T18:21:30.352Z,5.50
2019-01-09T18:24:00.604Z,5.40
2019-01-09T18:26:30.913Z,5.20
2019-01-09T18:29:01.131Z,5.40
2019-01-09T18:32:12.545Z,5.20
2019-01-09T18:35:04.086Z,5.20
2019-01-09T18:38:01.232Z,5.20
2019-01-09T18:41:08.543Z,5.30
2019-01-09T18:44:35.485Z,5.20
2019-01-09T18:47:54.774Z,5.10
2019-01-09T18:51:12.189Z,5.20
2019-01-09T18:53:46.097Z,5.00
2019-01-09T18:56:16.538Z,5.10
2019-01-09T18:58:46.755Z,5.20
2019-01-09T19:01:17.395Z,5.10
2019-01-09T19:03:47.646Z,5.20
2019-01-09T19:06:18.299Z,5.10
2019-01-09T19:08:48.523Z,5.00
2019-01-09T19:11:19.624Z,5.00
2019-01-09T19:13:50.541Z,5.20
2019-01-09T19:16:21.199Z,5.30
2019-01-09T19:18:51.580Z,5.30
2019-01-09T19:21:21.847Z,5.40
2019-01-09T19:23:52.268Z,5.20
2019-01-09T19:26:22.863Z,5.40
2019-01-09T19:28:53.177Z,5.10
2019-01-09T19:31:23.391Z,5.20
2019-01-09T19:33:54.789Z,5.10
2019-01-09T19:36:28.411Z,5.20
2019-01-09T19:38:58.944Z,5.40
2019-01-09T19:41:29.570Z,5.00
2019-01-09T19:43:59.802Z,4.90
2019-01-09T19:46:30.431Z,4.90
2019-01-09T19:49:01.143Z,5.20
2019-01-09T19:51:31.626Z,4.90
2019-01-09T19:54:01.881Z,4.70
2019-01-09T19:56:32.202Z,5.00
2019-01-09T19:59:02.812Z,4.90
2019-01-09T20:01:33.736Z,5.00
2019-01-09T20:04:04.766Z,5.00
2019-01-09T20:06:35.106Z,5.10
2019-01-09T20:09:08.915Z,5.30
2019-01-09T20:11:39.140Z,5.20
2019-01-09T20:14:09.516Z,5.50
2019-01-09T20:16:39.833Z,5.20
2019-01-09T20:19:10.570Z,5.40
2019-01-09T20:21:40.846Z,5.50
2019-01-09T20:24:11.528Z,5.50
2019-01-09T20:26:41.739Z,5.40
2019-01-09T20:29:12.001Z,5.50
2019-01-09T20:31:42.708Z,5.50
2019-01-09T20:34:13.266Z,5.60
2019-01-09T20:36:43.632Z,5.50
2019-01-09T20:39:13.953Z,5.70
2019-01-09T20:41:44.665Z,5.60
2019-01-09T20:44:16.439Z,5.50
2019-01-09T20:46:46.806Z,5.90
2019-01-09T20:49:17.005Z,5.70
2019-01-09T20:51:47.631Z,5.80
2019-01-09T20:54:17.836Z,5.70
2019-01-09T20:56:48.024Z,6.00
2019-01-09T20:59:18.561Z,5.80
2019-01-09T21:01:48.820Z,5.60
2019-01-09T21:04:20.047Z,5.50
2019-01-09T21:06:50.633Z,5.70
2019-01-09T21:09:20.838Z,5.50
2019-01-09T21:11:51.112Z,5.40
2019-01-09T21:14:21.499Z,5.30
2019-01-09T21:16:51.975Z,5.50
2019-01-09T21:19:22.248Z,5.60
2019-01-09T21:21:52.723Z,5.30
2019-01-09T21:24:24.010Z,5.20
2019-01-09T21:26:55.114Z,5.20
2019-01-09T21:29:25.462Z,5.40
2019-01-09T21:31:56.032Z,5.30
2019-01-09T21:34:26.632Z,5.10
2019-01-09T21:36:56.909Z,5.30
2019-01-09T21:39:27.056Z,4.90
2019-01-09T21:41:57.264Z,5.10
2019-01-09T21:44:27.803Z,4.90
2019-01-09T21:46:58.036Z,5.10
2019-01-09T21:49:28.552Z,4.90
2019-01-09T21:51:58.728Z,4.90
2019-01-09T21:54:28.994Z,4.60
2019-01-09T21:56:59.614Z,4.80
2019-01-09T21:59:29.844Z,5.00
2019-01-09T22:02:00.076Z,4.70
2019-01-09T22:04:30.598Z,4.70
2019-01-09T22:07:00.866Z,4.40
2019-01-09T22:09:31.134Z,4.40
2019-01-09T22:12:02.482Z,4.40
2019-01-09T22:14:33.679Z,4.70
2019-01-09T22:17:04.030Z,4.40
2019-01-09T22:19:34.242Z,4.50
2019-01-09T22:22:07.014Z,4.40
2019-01-09T22:24:37.242Z,4.40
2019-01-09T22:27:07.798Z,4.50
2019-01-09T22:29:38.052Z,4.40
2019-01-09T22:32:08.425Z,4.50
2019-01-09T22:34:38.963Z,4.40
2019-01-09T22:37:09.197Z,4.50
2019-01-09T22:39:39.329Z,4.50
2019-01-09T22:42:11.997Z,4.40
2019-01-09T22:44:41.585Z,4.50
2019-01-09T22:47:11.775Z,4.20
2019-01-09T22:49:41.993Z,4.50
2019-01-09T22:52:12.241Z,4.50
2019-01-09T22:54:42.467Z,4.60
2019-01-09T22:57:12.708Z,4.50
2019-01-09T22:59:42.921Z,4.40
2019-01-09T23:02:14.331Z,4.50
2019-01-09T23:04:44.587Z,4.40
2019-01-09T23:07:14.785Z,4.50
2019-01-09T23:09:45.028Z,4.50
2019-01-09T23:12:21.003Z,4.80
2019-01-09T23:14:47.869Z,4.50
2019-01-09T23:17:18.343Z,4.50
2019-01-09T23:19:48.578Z,4.40
2019-01-09T23:22:18.690Z,4.40
2019-01-09T23:24:48.916Z,4.50
2019-01-09T23:27:19.173Z,4.60
2019-01-09T23:29:49.376Z,4.70
2019-01-09T23:32:19.538Z,4.70
2019-01-09T23:34:50.421Z,4.70
2019-01-09T23:37:20.694Z,4.50
2019-01-09T23:39:50.934Z,4.30
2019-01-09T23:42:30.037Z,4.40
2019-01-09T23:44:53.471Z,4.20
2019-01-09T23:47:23.709Z,4.10
2019-01-09T23:49:53.925Z,4.00
2019-01-09T23:52:24.156Z,3.90
2019-01-09T23:54:54.656Z,4.00
2019-01-09T23:57:24.908Z,3.90
2019-01-09T23:59:55.160Z,3.80
